Adak, Alaska
Current Conditions -  °F | °C
As of 10:16 PM on Sunday 21 Dec 2014 (Local Time) from PADK Reporting Station
Overcast Overcast  
Wind Chill: 36°   Ceiling: 6000
Heat Index: 36°   Visibility: 10mi
Dew Point: 34°   Wind: 3mph
Humidity: 93%   Direction: 250°WSW
Pressure: 29.97"   Gusts: NA
Location:  51.88°N, 176.66°W
Report Text: PADK 220816Z AUTO 25003KT 10SM OVC060 02/01 A2997 RMK AO1
Loading
Personal Weather Stations






























Interactive Weather Map New forecast layout! Learn more

10-Day Weather Forecast

Advertisements
Track Severe Weather on mobile